createdAt,value
2023-01-07T00:01:02.415Z,5.12
2023-01-07T00:06:00.586Z,4.60
2023-01-07T00:10:55.324Z,5.22
2023-01-07T00:15:51.597Z,5.21
2023-01-07T00:20:44.807Z,4.88
2023-01-07T00:25:38.004Z,5.23
2023-01-07T00:30:32.647Z,5.22
2023-01-07T00:35:28.560Z,5.18
2023-01-07T00:40:25.428Z,5.19
2023-01-07T00:45:19.015Z,4.96
2023-01-07T00:50:13.605Z,5.09
2023-01-07T00:55:08.380Z,4.89
2023-01-07T01:00:01.609Z,4.70
2023-01-07T01:04:55.282Z,4.87
2023-01-07T01:09:49.944Z,4.91
2023-01-07T01:14:43.362Z,4.76
2023-01-07T01:19:36.612Z,4.91
2023-01-07T01:24:29.983Z,4.39
2023-01-07T01:29:24.631Z,4.16
2023-01-07T01:34:17.773Z,4.42
2023-01-07T01:39:11.541Z,4.28
2023-01-07T01:44:39.221Z,4.14
2023-01-07T01:49:40.029Z,4.06
2023-01-07T01:54:34.429Z,3.80
2023-01-07T01:59:31.482Z,3.94
2023-01-07T02:04:31.963Z,4.44
2023-01-07T02:09:25.538Z,4.19
2023-01-07T02:14:37.340Z,4.27
2023-01-07T02:20:09.112Z,4.20
2023-01-07T02:25:30.732Z,4.08
2023-01-07T02:30:41.560Z,3.64
2023-01-07T02:35:51.146Z,3.87
2023-01-07T02:40:52.673Z,3.87
2023-01-07T02:45:51.661Z,3.71
2023-01-07T02:50:46.287Z,3.68
2023-01-07T02:55:48.997Z,3.12
2023-01-07T03:01:17.269Z,3.27
2023-01-07T03:06:31.333Z,1.99
2023-01-07T03:11:28.502Z,3.19
2023-01-07T03:16:30.097Z,2.96
2023-01-07T03:21:27.522Z,2.64
2023-01-07T03:26:26.573Z,2.24
2023-01-07T03:31:21.381Z,2.65
2023-01-07T03:36:20.693Z,2.79
2023-01-07T03:41:35.563Z,2.59
2023-01-07T03:46:29.375Z,2.05
2023-01-07T03:51:22.652Z,2.74
2023-01-07T03:56:17.241Z,2.70
2023-01-07T04:01:10.673Z,2.66
2023-01-07T04:06:04.052Z,2.63
2023-01-07T04:10:57.404Z,1.83
2023-01-07T04:15:52.044Z,2.22
2023-01-07T04:20:47.994Z,1.95
2023-01-07T04:25:42.482Z,2.21
2023-01-07T04:30:38.759Z,2.20
2023-01-07T04:35:34.192Z,2.19
2023-01-07T04:40:28.696Z,1.25
2023-01-07T04:45:22.070Z,1.65
2023-01-07T04:50:15.961Z,1.96
2023-01-07T04:55:12.202Z,1.25
2023-01-07T05:00:08.967Z,1.77
2023-01-07T05:05:02.455Z,1.54
2023-01-07T05:09:56.965Z,1.64
2023-01-07T05:14:52.438Z,1.72
2023-01-07T05:19:45.698Z,1.29
2023-01-07T05:24:40.235Z,1.71
2023-01-07T05:29:33.918Z,1.60
2023-01-07T05:34:29.087Z,1.67
2023-01-07T05:39:23.888Z,1.63
2023-01-07T05:44:17.111Z,1.56
2023-01-07T05:49:10.329Z,1.42
2023-01-07T05:54:05.402Z,0.83
2023-01-07T05:58:58.738Z,0.99
2023-01-07T06:03:52.022Z,0.87
2023-01-07T06:08:45.430Z,0.73
2023-01-07T06:13:40.152Z,0.56
2023-01-07T06:18:33.567Z,1.11
2023-01-07T06:23:26.830Z,1.01
2023-01-07T06:28:21.199Z,0.89
2023-01-07T06:33:16.663Z,0.86
2023-01-07T06:38:10.041Z,1.18
2023-01-07T06:43:03.678Z,-0.10
2023-01-07T06:47:57.628Z,1.26
2023-01-07T06:52:52.490Z,1.62
2023-01-07T06:57:46.320Z,1.72
2023-01-07T07:02:39.747Z,1.50
2023-01-07T07:07:33.282Z,2.56
2023-01-07T07:12:27.909Z,2.23
2023-01-07T07:17:21.206Z,2.79
2023-01-07T07:22:14.460Z,2.59
2023-01-07T07:27:07.739Z,3.43
2023-01-07T07:32:02.384Z,3.13
2023-01-07T07:36:55.756Z,3.35
2023-01-07T07:41:49.080Z,3.61
2023-01-07T07:46:44.474Z,3.73
2023-01-07T07:51:39.282Z,3.14
2023-01-07T07:56:33.279Z,2.90
2023-01-07T08:01:26.722Z,3.02
2023-01-07T08:06:22.033Z,4.29
2023-01-07T08:11:19.496Z,4.42
2023-01-07T08:16:12.755Z,4.56
2023-01-07T08:21:08.693Z,4.47
2023-01-07T08:26:03.034Z,4.77
2023-01-07T08:30:58.198Z,4.91
2023-01-07T08:35:51.572Z,4.87
2023-01-07T08:40:45.573Z,5.16
2023-01-07T08:45:39.417Z,4.84
2023-01-07T08:50:34.919Z,5.58
2023-01-07T08:55:29.836Z,5.91
2023-01-07T09:00:26.925Z,6.09
2023-01-07T09:05:20.335Z,5.57
2023-01-07T09:10:15.128Z,6.01
2023-01-07T09:15:10.267Z,6.83
2023-01-07T09:20:03.946Z,7.41
2023-01-07T09:24:57.385Z,8.07
2023-01-07T09:29:51.970Z,9.00
2023-01-07T09:34:45.354Z,9.47
2023-01-07T09:39:38.808Z,10.12
2023-01-07T09:44:47.543Z,10.33
2023-01-07T09:49:43.947Z,10.77
2023-01-07T09:54:39.708Z,10.31
2023-01-07T09:59:33.173Z,10.34
2023-01-07T10:04:35.568Z,10.19
2023-01-07T10:09:41.827Z,9.44
2023-01-07T10:15:08.489Z,9.73
2023-01-07T10:20:08.325Z,9.40
2023-01-07T10:25:10.520Z,9.73
2023-01-07T10:30:06.703Z,9.13
2023-01-07T10:35:01.756Z,9.95
2023-01-07T10:40:13.110Z,10.45
2023-01-07T10:45:23.134Z,10.67
2023-01-07T10:50:54.062Z,10.58
2023-01-07T10:56:03.937Z,10.55
2023-01-07T11:00:58.265Z,10.77
2023-01-07T11:05:58.809Z,11.24
2023-01-07T11:10:58.619Z,11.44
2023-01-07T11:16:03.642Z,11.30
2023-01-07T11:20:58.910Z,10.99
2023-01-07T11:25:55.968Z,11.43
2023-01-07T11:30:59.706Z,10.56
2023-01-07T11:35:55.209Z,11.33
2023-01-07T11:41:00.676Z,11.79
2023-01-07T11:46:20.337Z,11.80
2023-01-07T11:51:11.692Z,10.97
2023-01-07T11:56:08.298Z,10.59
2023-01-07T12:01:15.445Z,9.62
2023-01-07T12:06:16.459Z,9.85
2023-01-07T12:11:16.295Z,9.18
2023-01-07T12:16:11.524Z,9.29
2023-01-07T12:21:33.840Z,9.30
2023-01-07T12:26:37.995Z,9.46
2023-01-07T12:31:42.113Z,9.12
2023-01-07T12:36:45.510Z,9.53
2023-01-07T12:41:45.286Z,8.88
2023-01-07T12:46:47.128Z,9.24
2023-01-07T12:51:44.713Z,9.33
2023-01-07T12:56:46.707Z,9.65
2023-01-07T13:01:45.993Z,9.47
2023-01-07T13:06:47.045Z,9.64
2023-01-07T13:12:02.024Z,9.20
2023-01-07T13:17:02.999Z,9.53
2023-01-07T13:21:56.763Z,9.60
2023-01-07T13:26:57.301Z,9.60
2023-01-07T13:32:14.398Z,9.59
2023-01-07T13:37:23.274Z,9.85
2023-01-07T13:42:30.578Z,9.86
2023-01-07T13:47:28.054Z,9.86
2023-01-07T13:52:23.548Z,9.89
2023-01-07T13:57:43.681Z,9.96
2023-01-07T14:02:56.368Z,9.94
2023-01-07T14:07:54.678Z,9.73
2023-01-07T14:13:11.871Z,9.22
2023-01-07T14:18:31.260Z,9.82
2023-01-07T14:23:33.576Z,9.06
2023-01-07T14:28:53.465Z,9.73
2023-01-07T14:33:51.281Z,9.68
2023-01-07T14:39:30.484Z,9.39
2023-01-07T14:44:30.043Z,9.60
2023-01-07T14:50:03.423Z,9.49
2023-01-07T14:55:26.805Z,9.00
2023-01-07T15:00:48.946Z,8.06
2023-01-07T15:06:02.651Z,8.08
2023-01-07T15:11:17.227Z,7.88
2023-01-07T15:16:15.041Z,8.38
2023-01-07T15:21:21.275Z,8.02
2023-01-07T15:26:21.419Z,7.84
2023-01-07T15:31:25.203Z,7.60
2023-01-07T15:36:19.001Z,7.45
2023-01-07T15:41:28.916Z,7.11
2023-01-07T15:46:25.850Z,7.01
2023-01-07T15:51:23.529Z,7.31
2023-01-07T15:56:20.407Z,7.28
2023-01-07T16:01:18.612Z,7.36
2023-01-07T16:06:28.165Z,6.79
2023-01-07T16:11:27.847Z,6.86
2023-01-07T16:16:21.416Z,6.66
2023-01-07T16:21:16.207Z,6.44
2023-01-07T16:26:17.650Z,6.76
2023-01-07T16:31:14.119Z,6.56
2023-01-07T16:36:12.734Z,6.36
2023-01-07T16:41:06.173Z,6.62
2023-01-07T16:46:19.046Z,6.42
2023-01-07T16:51:38.662Z,6.25
2023-01-07T16:56:32.232Z,6.40
2023-01-07T17:01:38.146Z,5.25
2023-01-07T17:06:40.989Z,6.30
2023-01-07T17:11:37.193Z,6.20
2023-01-07T17:16:33.555Z,5.77
2023-01-07T17:21:41.870Z,5.99
2023-01-07T17:26:40.496Z,5.85
2023-01-07T17:31:35.938Z,5.74
2023-01-07T17:36:29.332Z,5.79
2023-01-07T17:41:42.311Z,5.59
2023-01-07T17:46:37.190Z,5.68
2023-01-07T17:51:30.778Z,6.03
2023-01-07T17:56:24.635Z,5.88
2023-01-07T18:01:20.308Z,5.99
2023-01-07T18:06:18.836Z,5.45
2023-01-07T18:11:31.568Z,5.52
2023-01-07T18:16:24.847Z,5.82
2023-01-07T18:21:19.589Z,6.11
2023-01-07T18:26:13.679Z,5.56
2023-01-07T18:31:07.206Z,5.13
2023-01-07T18:36:00.438Z,5.35
2023-01-07T18:41:08.036Z,5.08
2023-01-07T18:46:02.001Z,4.84
2023-01-07T18:50:56.696Z,4.62
2023-01-07T18:56:02.230Z,3.80
2023-01-07T19:00:55.786Z,3.60
2023-01-07T19:05:49.075Z,3.67
2023-01-07T19:10:44.916Z,3.51
2023-01-07T19:15:40.272Z,3.34
2023-01-07T19:20:33.503Z,3.87
2023-01-07T19:25:26.993Z,3.48
2023-01-07T19:30:20.235Z,3.76
2023-01-07T19:35:14.937Z,3.59
2023-01-07T19:40:09.310Z,3.65
2023-01-07T19:45:04.983Z,3.59
2023-01-07T19:49:58.504Z,2.91
2023-01-07T19:54:53.311Z,3.55
2023-01-07T19:59:46.916Z,2.58
2023-01-07T20:04:43.159Z,3.47
2023-01-07T20:09:36.371Z,3.40
2023-01-07T20:14:31.043Z,2.12
2023-01-07T20:19:24.441Z,3.31
2023-01-07T20:24:22.309Z,3.26
2023-01-07T20:29:15.684Z,3.03
2023-01-07T20:34:12.786Z,2.93
2023-01-07T20:39:08.150Z,2.95
2023-01-07T20:44:02.679Z,2.98
2023-01-07T20:48:56.425Z,2.93
2023-01-07T20:53:51.460Z,2.49
2023-01-07T20:58:45.309Z,3.24
2023-01-07T21:03:40.109Z,3.05
2023-01-07T21:08:33.460Z,2.00
2023-01-07T21:13:28.207Z,3.15
2023-01-07T21:18:26.029Z,3.17
2023-01-07T21:23:19.423Z,3.25
2023-01-07T21:28:12.737Z,3.22
2023-01-07T21:33:07.591Z,2.70
2023-01-07T21:38:00.993Z,2.97
2023-01-07T21:42:54.155Z,3.16
2023-01-07T21:47:47.374Z,2.97
2023-01-07T21:52:42.308Z,3.16
2023-01-07T21:57:37.142Z,2.50
2023-01-07T22:02:30.540Z,2.40
2023-01-07T22:07:23.994Z,2.45
2023-01-07T22:12:18.739Z,3.21
2023-01-07T22:17:13.788Z,2.46
2023-01-07T22:22:07.947Z,2.49
2023-01-07T22:27:01.229Z,2.88
2023-01-07T22:32:07.332Z,3.09
2023-01-07T22:37:04.974Z,2.07
2023-01-07T22:42:02.254Z,2.36
2023-01-07T22:46:56.991Z,2.96
2023-01-07T22:51:50.999Z,2.59
2023-01-07T22:56:45.499Z,2.66
2023-01-07T23:01:41.322Z,2.81
2023-01-07T23:06:36.251Z,2.68
2023-01-07T23:11:46.608Z,2.41
2023-01-07T23:16:43.085Z,2.16
2023-01-07T23:21:41.330Z,1.68
2023-01-07T23:26:34.534Z,2.20
2023-01-07T23:31:27.879Z,2.43
2023-01-07T23:36:23.507Z,2.27
2023-01-07T23:41:18.708Z,2.01
2023-01-07T23:46:12.256Z,2.07
2023-01-07T23:51:09.020Z,1.95
2023-01-07T23:56:02.525Z,2.04
